Time;durP1;ratioP1;P1;durP2;ratioP2;P2;SDS_P1;SDS_P2;PMS_P1;PMS_P2;Temp;Humidity;BMP_temperature;BMP_pressure;BME280_temperature;BME280_humidity;BME280_pressure;Samples;Min_cycle;Max_cycle;Signal;HPM_P1;HPM_P2
2023/03/12 05:01:51;;;;;;;0.75;0.57;;;-0.70;99.90;;;;;;5246606;23;20762;-69
2023/03/12 05:04:18;;;;;;;0.65;0.65;;;-0.60;99.90;;;;;;4929374;29;20724;-69
2023/03/12 05:06:45;;;;;;;0.75;0.75;;;-0.70;99.90;;;;;;4930345;29;20217;-69
2023/03/12 05:09:12;;;;;;;0.20;0.20;;;-0.60;99.90;;;;;;4930694;29;20210;-69
2023/03/12 05:11:38;;;;;;;1.35;1.25;;;-0.60;99.90;;;;;;4929450;29;20255;-69
2023/03/12 05:14:05;;;;;;;0.55;0.55;;;-0.60;99.90;;;;;;4910701;29;20874;-69
2023/03/12 05:16:32;;;;;;;1.40;1.15;;;-0.50;99.90;;;;;;4925269;29;20222;-68
2023/03/12 05:19:01;;;;;;;1.92;0.77;;;-0.50;99.90;;;;;;4926683;29;20229;-69
2023/03/12 05:21:28;;;;;;;1.85;1.00;;;-0.50;99.90;;;;;;4910399;29;20230;-69
2023/03/12 05:23:55;;;;;;;1.00;1.00;;;-0.40;99.90;;;;;;4911776;29;20215;-68
2023/03/12 05:26:23;;;;;;;0.65;0.65;;;-0.40;99.90;;;;;;4930644;29;20639;-68
2023/03/12 05:28:50;;;;;;;0.65;0.65;;;-0.40;99.90;;;;;;4928363;29;20220;-68
2023/03/12 05:31:18;;;;;;;0.60;0.43;;;-0.30;99.90;;;;;;4922701;29;20704;-68
2023/03/12 05:33:46;;;;;;;1.73;1.63;;;-0.30;99.90;;;;;;4922861;29;20207;-69
2023/03/12 05:36:14;;;;;;;2.58;2.05;;;-0.30;99.90;;;;;;4915575;29;20240;-69
2023/03/12 05:38:42;;;;;;;2.63;2.47;;;-0.30;99.90;;;;;;4913623;29;20776;-68
2023/03/12 05:41:19;;;;;;;1.80;1.73;;;-0.20;99.90;;;;;;4906400;29;20638;-69
2023/03/12 05:43:45;;;;;;;6.28;2.85;;;-0.20;99.90;;;;;;4926280;29;20209;-69
2023/03/12 05:46:12;;;;;;;0.45;0.45;;;-0.20;99.90;;;;;;4914014;29;20293;-69
2023/03/12 05:48:39;;;;;;;1.08;0.88;;;-0.20;99.90;;;;;;4909746;29;20218;-69
2023/03/12 05:51:06;;;;;;;0.30;0.30;;;-0.20;99.90;;;;;;4918881;29;20234;-68
2023/03/12 05:53:34;;;;;;;1.63;1.63;;;-0.20;99.90;;;;;;4925025;29;20664;-68
2023/03/12 05:56:03;;;;;;;0.40;0.40;;;-0.20;99.90;;;;;;4913569;29;20223;-69
2023/03/12 05:58:30;;;;;;;0.47;0.47;;;-0.20;99.90;;;;;;4916720;29;20302;-69
2023/03/12 06:00:58;;;;;;;0.30;0.30;;;-0.10;99.90;;;;;;4921301;29;20238;-69
2023/03/12 06:03:24;;;;;;;1.52;1.23;;;-0.10;99.90;;;;;;4925116;29;20697;-69
2023/03/12 06:05:53;;;;;;;0.32;0.32;;;0.00;99.90;;;;;;4913193;29;20209;-69
2023/03/12 06:08:21;;;;;;;0.30;0.30;;;0.00;99.90;;;;;;4914636;29;20218;-68
2023/03/12 06:10:50;;;;;;;5.45;2.13;;;0.00;99.90;;;;;;4919077;29;20250;-69
2023/03/12 06:13:17;;;;;;;2.50;1.40;;;0.00;99.90;;;;;;4928824;29;20233;-69
2023/03/12 06:15:43;;;;;;;0.45;0.45;;;0.00;99.90;;;;;;4916884;29;20668;-69
2023/03/12 06:18:10;;;;;;;0.77;0.77;;;0.00;99.90;;;;;;4915105;29;20218;-69
2023/03/12 06:20:37;;;;;;;1.00;1.00;;;0.10;99.90;;;;;;4919971;29;20238;-68
2023/03/12 06:23:04;;;;;;;1.45;1.42;;;0.10;99.90;;;;;;4919497;29;20202;-68
2023/03/12 06:25:30;;;;;;;3.05;2.63;;;0.20;99.90;;;;;;4918195;29;20217;-69
2023/03/12 06:27:58;;;;;;;0.75;0.75;;;0.20;99.90;;;;;;4920838;29;20278;-69
2023/03/12 06:30:26;;;;;;;1.52;1.48;;;0.30;99.90;;;;;;4912689;29;20215;-69
2023/03/12 06:32:53;;;;;;;2.53;2.40;;;0.40;99.90;;;;;;4916838;29;20206;-69
2023/03/12 06:35:20;;;;;;;0.43;0.43;;;0.40;99.90;;;;;;4910698;29;20206;-70
2023/03/12 06:37:47;;;;;;;1.45;1.30;;;0.40;99.90;;;;;;4906415;29;20242;-69
2023/03/12 06:40:14;;;;;;;1.90;1.88;;;0.50;99.90;;;;;;4907017;29;20306;-69
2023/03/12 06:42:41;;;;;;;0.55;0.55;;;0.50;99.90;;;;;;4924403;29;20214;-69
2023/03/12 06:45:10;;;;;;;1.58;1.52;;;0.50;99.90;;;;;;4921140;29;20219;-69
2023/03/12 06:47:37;;;;;;;1.27;1.27;;;0.50;99.90;;;;;;4913769;29;20302;-69
2023/03/12 06:50:04;;;;;;;0.30;0.30;;;0.60;99.90;;;;;;4909412;29;20586;-69
2023/03/12 06:52:30;;;;;;;1.77;1.67;;;0.60;99.90;;;;;;4923842;29;20226;-69
2023/03/12 06:54:57;;;;;;;5.22;1.65;;;0.60;99.90;;;;;;4916758;29;20206;-70
2023/03/12 06:57:24;;;;;;;0.50;0.50;;;0.60;99.90;;;;;;4914081;29;20222;-69
2023/03/12 06:59:51;;;;;;;1.10;1.10;;;0.60;99.90;;;;;;4915493;29;20206;-69
2023/03/12 07:02:19;;;;;;;1.95;1.30;;;0.70;99.90;;;;;;4929200;29;20237;-69
2023/03/12 07:04:45;;;;;;;0.93;0.93;;;0.70;99.90;;;;;;4907851;29;20238;-69
2023/03/12 07:07:12;;;;;;;1.20;1.20;;;0.70;99.90;;;;;;4911158;29;20206;-70
2023/03/12 07:09:39;;;;;;;0.95;0.95;;;0.80;99.90;;;;;;4909468;29;20221;-70
2023/03/12 07:12:06;;;;;;;0.63;0.63;;;0.80;99.90;;;;;;4914714;29;20242;-69
2023/03/12 07:14:33;;;;;;;1.58;1.52;;;0.90;99.90;;;;;;4910646;29;20219;-69
2023/03/12 07:17:00;;;;;;;1.05;1.05;;;0.90;99.90;;;;;;4927758;29;20229;-69
2023/03/12 07:19:29;;;;;;;0.73;0.73;;;1.00;99.90;;;;;;4915316;29;20536;-70
2023/03/12 07:21:56;;;;;;;2.90;1.48;;;1.00;99.90;;;;;;4925908;29;20226;-70
2023/03/12 07:24:23;;;;;;;1.42;1.42;;;1.00;99.90;;;;;;4913786;29;20215;-70
2023/03/12 07:26:50;;;;;;;0.60;0.60;;;1.00;99.90;;;;;;4911339;29;20218;-70
2023/03/12 07:29:17;;;;;;;2.20;0.85;;;1.10;99.90;;;;;;4914168;29;20226;-70
2023/03/12 07:31:43;;;;;;;0.65;0.65;;;1.10;99.90;;;;;;4914231;29;20222;-70
2023/03/12 07:34:10;;;;;;;2.42;2.25;;;1.20;99.90;;;;;;4915207;29;20226;-71
2023/03/12 07:36:38;;;;;;;2.38;1.40;;;1.30;99.90;;;;;;4925475;29;20579;-69
2023/03/12 07:39:05;;;;;;;0.50;0.50;;;1.40;99.90;;;;;;4912633;29;20213;-69
2023/03/12 07:41:32;;;;;;;1.20;1.17;;;1.50;99.90;;;;;;4918723;29;20234;-70
2023/03/12 07:43:58;;;;;;;1.60;1.50;;;1.50;99.90;;;;;;4920449;29;20245;-69
2023/03/12 07:46:25;;;;;;;1.55;1.55;;;1.60;99.90;;;;;;4912503;29;20198;-69
2023/03/12 07:48:52;;;;;;;1.98;1.40;;;1.70;99.90;;;;;;4918980;29;20236;-69
2023/03/12 07:51:18;;;;;;;1.20;1.20;;;1.70;99.90;;;;;;4914235;29;20258;-69
2023/03/12 07:53:47;;;;;;;5.50;2.53;;;1.70;99.90;;;;;;4913424;29;20569;-69
2023/03/12 07:56:14;;;;;;;0.73;0.73;;;1.70;99.90;;;;;;4914495;29;20211;-71
2023/03/12 07:58:40;;;;;;;1.10;1.10;;;1.80;99.90;;;;;;4915315;29;20635;-71
2023/03/12 08:01:07;;;;;;;1.13;1.13;;;1.90;99.90;;;;;;4912335;29;20245;-71
2023/03/12 08:03:34;;;;;;;3.65;1.98;;;2.10;99.90;;;;;;4910372;29;20215;-70
2023/03/12 08:06:03;;;;;;;2.00;1.05;;;2.10;99.90;;;;;;4915200;29;20214;-72
2023/03/12 08:08:31;;;;;;;23.50;3.72;;;2.20;99.90;;;;;;4928723;29;20205;-71
2023/03/12 08:11:00;;;;;;;2.03;2.00;;;2.30;99.90;;;;;;4915929;29;20222;-70
2023/03/12 08:13:27;;;;;;;2.75;2.55;;;2.40;99.90;;;;;;4912485;29;20232;-71
2023/03/12 08:15:54;;;;;;;1.65;1.50;;;2.50;99.90;;;;;;4922245;29;20225;-70
2023/03/12 08:18:22;;;;;;;1.30;1.30;;;2.60;99.90;;;;;;4914963;29;20711;-70
2023/03/12 08:20:51;;;;;;;2.08;2.08;;;2.70;99.90;;;;;;4919443;29;20316;-70
2023/03/12 08:23:17;;;;;;;2.10;2.00;;;2.80;99.90;;;;;;4924347;29;20328;-70
2023/03/12 08:25:45;;;;;;;1.90;1.90;;;2.80;99.90;;;;;;4917546;29;20232;-70
2023/03/12 08:28:13;;;;;;;2.58;2.47;;;2.90;99.90;;;;;;4918933;29;20198;-71
2023/03/12 08:30:44;;;;;;;1.42;1.42;;;3.00;99.90;;;;;;4921070;29;20235;-71
2023/03/12 08:33:11;;;;;;;1.58;1.48;;;3.10;99.90;;;;;;4913356;29;20218;-71
2023/03/12 08:35:38;;;;;;;1.85;1.75;;;3.30;99.90;;;;;;4917753;29;20206;-70
2023/03/12 08:38:05;;;;;;;3.67;1.35;;;3.40;99.90;;;;;;4909588;29;20266;-70
2023/03/12 08:40:31;;;;;;;3.72;3.42;;;3.50;99.90;;;;;;4924569;29;20231;-69
2023/03/12 08:42:58;;;;;;;1.13;1.13;;;3.60;99.90;;;;;;4916212;29;20686;-70
2023/03/12 08:45:26;;;;;;;4.20;2.53;;;3.60;99.90;;;;;;4929279;29;20222;-70
2023/03/12 08:47:53;;;;;;;2.38;2.13;;;3.60;99.90;;;;;;4911331;29;20213;-70
2023/03/12 08:50:21;;;;;;;4.00;2.60;;;3.60;99.90;;;;;;4920586;29;20210;-71
2023/03/12 08:52:48;;;;;;;2.95;2.10;;;3.60;99.90;;;;;;4930525;29;21406;-70
2023/03/12 08:55:15;;;;;;;4.00;1.73;;;3.50;99.90;;;;;;4916305;29;20211;-70
2023/03/12 08:57:42;;;;;;;2.67;1.98;;;3.60;99.90;;;;;;4916095;29;20230;-71
2023/03/12 09:00:13;;;;;;;1.33;1.33;;;3.70;99.90;;;;;;4915327;29;20655;-69
2023/03/12 09:02:43;;;;;;;1.50;1.45;;;3.70;99.90;;;;;;4925676;29;20242;-70
2023/03/12 09:05:10;;;;;;;1.35;1.35;;;3.70;99.90;;;;;;4916771;29;20245;-69
2023/03/12 09:07:37;;;;;;;1.30;1.30;;;3.90;99.90;;;;;;4912043;29;20238;-70
2023/03/12 09:10:05;;;;;;;2.22;2.13;;;3.90;99.90;;;;;;4914927;29;20214;-69
2023/03/12 09:12:32;;;;;;;2.20;2.15;;;4.00;99.90;;;;;;4918886;29;20235;-70
2023/03/12 09:14:58;;;;;;;3.15;2.50;;;4.00;99.90;;;;;;4925057;29;20220;-70
2023/03/12 09:17:25;;;;;;;11.52;9.45;;;4.10;99.90;;;;;;4915707;29;20242;-69
2023/03/12 09:19:53;;;;;;;3.70;3.33;;;4.20;99.90;;;;;;4918043;29;20202;-69
2023/03/12 09:22:20;;;;;;;5.25;3.05;;;4.20;99.90;;;;;;4927294;29;20724;-69
2023/03/12 09:24:46;;;;;;;2.95;2.45;;;4.20;99.90;;;;;;4912652;29;20305;-69
2023/03/12 09:27:13;;;;;;;4.70;3.83;;;4.20;99.90;;;;;;4922045;29;20218;-69
2023/03/12 09:29:40;;;;;;;1.23;1.20;;;4.30;99.90;;;;;;4924977;29;20218;-69
2023/03/12 09:32:08;;;;;;;31.70;4.75;;;4.50;99.90;;;;;;4921802;29;20545;-69
2023/03/12 09:34:35;;;;;;;1.63;1.63;;;4.50;99.90;;;;;;4914820;29;20210;-69
2023/03/12 09:37:03;;;;;;;3.03;2.65;;;4.60;99.90;;;;;;4913648;29;20230;-69
2023/03/12 09:39:29;;;;;;;1.63;1.60;;;4.50;99.90;;;;;;4908835;29;20313;-69
2023/03/12 09:41:56;;;;;;;3.33;2.63;;;4.50;99.90;;;;;;4923613;29;20226;-69
2023/03/12 09:44:32;;;;;;;3.50;3.20;;;4.50;99.90;;;;;;4913777;29;20218;-69
2023/03/12 09:47:03;;;;;;;2.67;1.85;;;4.60;99.90;;;;;;4919329;29;20214;-69
2023/03/12 09:49:34;;;;;;;0.68;0.68;;;4.60;99.90;;;;;;4913928;29;20234;-69
2023/03/12 09:52:10;;;;;;;1.08;1.08;;;4.60;99.90;;;;;;4924437;29;20226;-69
2023/03/12 09:54:44;;;;;;;0.98;0.98;;;4.60;99.90;;;;;;4912319;29;20214;-69
2023/03/12 09:57:16;;;;;;;2.70;1.48;;;4.80;99.90;;;;;;4928090;29;20566;-69
2023/03/12 09:59:42;;;;;;;2.38;1.40;;;4.80;99.90;;;;;;4915080;29;20203;-69
2023/03/12 10:02:39;;;;;;;1.25;1.02;;;4.90;99.90;;;;;;4919719;29;20726;-69
2023/03/12 10:05:10;;;;;;;0.80;0.80;;;4.80;99.90;;;;;;4905465;29;20225;-68
2023/03/12 10:07:42;;;;;;;1.73;1.58;;;4.70;99.90;;;;;;4912983;29;20584;-69
2023/03/12 10:10:45;;;;;;;3.47;1.70;;;4.60;99.90;;;;;;4913135;29;20211;-69
2023/03/12 10:13:22;;;;;;;0.93;0.93;;;4.60;99.90;;;;;;4914987;29;20206;-69
2023/03/12 10:16:01;;;;;;;0.40;0.40;;;4.70;99.90;;;;;;4907935;29;20213;-69
2023/03/12 10:18:43;;;;;;;1.00;1.00;;;4.80;99.90;;;;;;4915568;29;20226;-69
2023/03/12 10:21:22;;;;;;;1.60;1.50;;;4.90;99.90;;;;;;4915957;29;20230;-70
2023/03/12 10:24:16;;;;;;;0.93;0.93;;;5.10;99.90;;;;;;4915505;29;20210;-69
2023/03/12 10:26:54;;;;;;;1.35;1.17;;;5.20;99.90;;;;;;4923789;29;20209;-70
2023/03/12 10:29:23;;;;;;;1.40;1.27;;;5.40;99.90;;;;;;4918544;29;20211;-70
2023/03/12 10:31:54;;;;;;;0.90;0.85;;;5.40;99.90;;;;;;4912066;29;20560;-70
2023/03/12 10:34:27;;;;;;;0.47;0.47;;;5.40;99.90;;;;;;4913833;29;20211;-70
2023/03/12 10:36:59;;;;;;;0.60;0.60;;;5.40;99.90;;;;;;4914487;29;20201;-71
2023/03/12 10:39:27;;;;;;;1.17;1.05;;;5.40;99.90;;;;;;4914688;29;20214;-71
2023/03/12 10:41:59;;;;;;;1.35;1.35;;;5.50;99.90;;;;;;4924827;29;20221;-71
2023/03/12 10:44:27;;;;;;;1.58;1.33;;;5.50;99.90;;;;;;4920652;29;20528;-71
2023/03/12 10:47:16;;;;;;;1.38;1.30;;;5.70;99.90;;;;;;4914123;29;20217;-71
2023/03/12 10:49:45;;;;;;;1.25;1.25;;;5.80;99.90;;;;;;4911188;29;20577;-71
2023/03/12 10:52:16;;;;;;;0.65;0.65;;;5.90;99.90;;;;;;4913047;29;20309;-70
2023/03/12 10:54:47;;;;;;;2.17;1.45;;;5.90;99.90;;;;;;4911026;29;20720;-70
2023/03/12 10:57:15;;;;;;;2.47;0.98;;;5.90;99.90;;;;;;4920785;29;20231;-71
2023/03/12 10:59:44;;;;;;;2.00;1.30;;;5.90;99.90;;;;;;4915632;29;20329;-70
2023/03/12 11:02:31;;;;;;;0.82;0.82;;;6.00;99.90;;;;;;4903716;29;20246;-69
2023/03/12 11:04:59;;;;;;;1.13;1.10;;;5.90;99.90;;;;;;4917742;29;20214;-71
2023/03/12 11:07:29;;;;;;;1.38;0.43;;;5.90;99.90;;;;;;4905864;29;20227;-70
2023/03/12 11:10:26;;;;;;;5.20;1.70;;;5.70;99.90;;;;;;4912497;29;20242;-71
2023/03/12 11:12:59;;;;;;;1.45;1.27;;;5.60;99.90;;;;;;4908984;29;20228;-71
2023/03/12 11:15:30;;;;;;;0.90;0.90;;;5.40;99.90;;;;;;4922447;29;20773;-71
2023/03/12 11:18:20;;;;;;;1.50;1.48;;;5.30;99.90;;;;;;4908643;29;20313;-71
2023/03/12 11:20:49;;;;;;;0.77;0.77;;;5.00;99.90;;;;;;4911913;29;20225;-70
2023/03/12 11:23:16;;;;;;;2.60;2.42;;;4.90;99.90;;;;;;4916640;29;20225;-70
2023/03/12 11:25:52;;;;;;;0.88;0.88;;;4.90;99.90;;;;;;4924362;29;20198;-71
2023/03/12 11:28:24;;;;;;;1.55;1.45;;;4.90;99.90;;;;;;4916597;29;20211;-71
2023/03/12 11:30:56;;;;;;;1.38;1.10;;;4.80;99.90;;;;;;4913232;29;20233;-71
2023/03/12 11:33:23;;;;;;;2.58;2.47;;;4.80;99.90;;;;;;4925574;29;20238;-71
2023/03/12 11:36:08;;;;;;;3.13;1.00;;;4.80;99.90;;;;;;4921129;29;20207;-71
2023/03/12 11:38:39;;;;;;;2.78;1.90;;;4.90;99.90;;;;;;4923479;29;20238;-71
2023/03/12 11:41:25;;;;;;;0.52;0.52;;;4.80;99.90;;;;;;4933260;29;20246;-69
2023/03/12 11:44:12;;;;;;;1.10;1.10;;;4.80;99.90;;;;;;4915735;29;20206;-70
2023/03/12 11:46:50;;;;;;;0.82;0.82;;;4.80;99.90;;;;;;4922244;29;20214;-71
2023/03/12 11:49:34;;;;;;;1.17;1.17;;;4.70;99.90;;;;;;4925525;29;20203;-71
2023/03/12 11:52:05;;;;;;;1.85;1.52;;;4.70;99.90;;;;;;4928741;23;20253;-71
2023/03/12 11:54:57;;;;;;;0.80;0.80;;;4.70;99.90;;;;;;4929086;29;20542;-71
2023/03/12 11:57:32;;;;;;;0.25;0.25;;;4.70;99.90;;;;;;4929529;29;20210;-72
2023/03/12 12:00:12;;;;;;;2.15;0.55;;;4.70;99.90;;;;;;4939017;29;20212;-70
2023/03/12 12:03:00;;;;;;;0.70;0.45;;;4.70;99.90;;;;;;4933310;28;20260;-72
2023/03/12 12:05:36;;;;;;;1.75;1.10;;;4.70;99.90;;;;;;4935328;29;20488;-71
2023/03/12 12:08:13;;;;;;;6.82;1.15;;;4.90;99.90;;;;;;4935210;29;20189;-68
2023/03/12 12:10:48;;;;;;;1.80;1.70;;;4.80;99.90;;;;;;4945124;29;20215;-71
2023/03/12 12:13:22;;;;;;;2.97;1.70;;;4.80;99.90;;;;;;4951330;28;20224;-72
2023/03/12 12:15:58;;;;;;;9.93;2.15;;;4.70;99.90;;;;;;4941694;29;20607;-72
2023/03/12 12:18:40;;;;;;;1.42;1.33;;;4.70;99.90;;;;;;4950649;28;20320;-72
2023/03/12 12:21:19;;;;;;;1.42;1.42;;;4.70;99.90;;;;;;4943300;29;20214;-72
2023/03/12 12:23:57;;;;;;;1.50;0.50;;;4.70;99.90;;;;;;4937408;29;20231;-72
2023/03/12 12:26:32;;;;;;;2.47;1.02;;;4.80;99.90;;;;;;4940495;28;20303;-71
2023/03/12 12:29:12;;;;;;;0.38;0.38;;;4.90;99.90;;;;;;4939122;28;20212;-72
2023/03/12 12:31:45;;;;;;;0.60;0.60;;;4.90;99.90;;;;;;4945784;28;20205;-72
2023/03/12 12:34:39;;;;;;;2.88;0.75;;;4.80;99.90;;;;;;4941544;29;20205;-73
2023/03/12 12:37:20;;;;;;;0.30;0.30;;;4.70;99.90;;;;;;4945028;29;20713;-73
2023/03/12 12:39:53;;;;;;;0.40;0.40;;;4.70;99.90;;;;;;4948098;28;20282;-72
2023/03/12 12:42:26;;;;;;;2.03;1.88;;;4.60;99.90;;;;;;4954165;29;20225;-72
2023/03/12 12:44:57;;;;;;;1.48;1.48;;;4.70;99.90;;;;;;4946985;28;20206;-73
2023/03/12 12:47:34;;;;;;;0.60;0.60;;;4.80;99.90;;;;;;4948831;28;20221;-73
2023/03/12 12:50:02;;;;;;;2.63;1.13;;;4.80;99.90;;;;;;4942099;29;20205;-71
2023/03/12 12:52:29;;;;;;;1.85;0.93;;;4.70;99.90;;;;;;4942678;29;20244;-71
2023/03/12 12:55:05;;;;;;;0.75;0.70;;;4.70;99.90;;;;;;4946506;28;20206;-73
2023/03/12 12:57:39;;;;;;;0.82;0.82;;;4.80;99.90;;;;;;4951998;29;20924;-72
2023/03/12 13:00:25;;;;;;;2.75;1.45;;;4.80;99.90;;;;;;4947234;28;20232;-72
2023/03/12 13:02:56;;;;;;;1.52;1.15;;;4.80;99.90;;;;;;4940096;29;20236;-73
2023/03/12 13:05:27;;;;;;;1.38;0.98;;;4.90;99.90;;;;;;4942572;28;20210;-72
2023/03/12 13:07:54;;;;;;;0.30;0.30;;;4.90;99.90;;;;;;4954016;28;20217;-72
2023/03/12 13:10:41;;;;;;;3.90;0.40;;;4.90;99.90;;;;;;4943736;28;20216;-71
2023/03/12 13:13:18;;;;;;;0.70;0.70;;;4.90;99.90;;;;;;4915644;29;20340;-73
2023/03/12 13:15:47;;;;;;;0.73;0.73;;;5.00;99.90;;;;;;4946110;29;20193;-71
2023/03/12 13:18:32;;;;;;;2.65;0.95;;;5.00;99.90;;;;;;4953234;28;20725;-72
2023/03/12 13:21:09;;;;;;;1.50;1.35;;;5.00;99.90;;;;;;4936992;29;20206;-72
2023/03/12 13:23:43;;;;;;;1.38;0.90;;;5.00;99.90;;;;;;4936455;29;20963;-73
2023/03/12 13:26:19;;;;;;;0.38;0.38;;;4.90;99.90;;;;;;4946431;28;20197;-73
2023/03/12 13:29:11;;;;;;;1.58;1.10;;;4.70;99.90;;;;;;4932645;28;20217;-72
2023/03/12 13:31:40;;;;;;;1.95;1.85;;;4.50;99.90;;;;;;4937776;28;20214;-72
2023/03/12 13:34:44;;;;;;;1.15;1.10;;;4.50;99.90;;;;;;4953067;28;20213;-72
2023/03/12 13:37:47;;;;;;;0.80;0.80;;;4.60;99.90;;;;;;4954193;29;20216;-72
2023/03/12 13:40:34;;;;;;;0.20;0.20;;;4.60;99.90;;;;;;4937128;29;20198;-72
2023/03/12 13:43:11;;;;;;;3.03;0.90;;;4.60;99.90;;;;;;4953220;29;20235;-72
2023/03/12 13:45:54;;;;;;;1.00;0.80;;;4.60;99.90;;;;;;4953174;28;20653;-72
2023/03/12 13:48:24;;;;;;;1.50;1.40;;;4.60;99.90;;;;;;4933364;28;20233;-73
2023/03/12 13:50:53;;;;;;;1.20;1.20;;;4.60;99.90;;;;;;4926986;29;20202;-73
2023/03/12 13:53:24;;;;;;;15.32;1.25;;;4.60;99.90;;;;;;4933352;29;20248;-72
2023/03/12 13:56:01;;;;;;;1.42;1.33;;;4.40;99.90;;;;;;4934276;29;20220;-71
2023/03/12 13:58:28;;;;;;;1.00;1.00;;;4.30;99.90;;;;;;4931830;29;20590;-72
2023/03/12 14:01:00;;;;;;;0.70;0.70;;;4.20;99.90;;;;;;4934441;29;20207;-72
2023/03/12 14:03:32;;;;;;;0.88;0.82;;;4.20;99.90;;;;;;4937066;29;20264;-72
2023/03/12 14:06:08;;;;;;;0.57;0.57;;;4.20;99.90;;;;;;4934911;29;20242;-71
2023/03/12 14:08:50;;;;;;;0.52;0.52;;;4.10;99.90;;;;;;4929034;29;20217;-70
2023/03/12 14:11:27;;;;;;;0.93;0.93;;;4.10;99.90;;;;;;4953313;28;20212;-71
2023/03/12 14:14:19;;;;;;;0.57;0.40;;;4.00;99.90;;;;;;4952444;28;20232;-70
2023/03/12 14:16:48;;;;;;;1.30;1.30;;;4.00;99.90;;;;;;4944192;28;20209;-71
2023/03/12 14:19:20;;;;;;;0.75;0.75;;;3.80;99.90;;;;;;4937054;28;20668;-71
2023/03/12 14:21:49;;;;;;;1.05;1.05;;;3.70;99.90;;;;;;4941782;29;20198;-71
2023/03/12 14:24:24;;;;;;;0.80;0.80;;;3.70;99.90;;;;;;4932717;29;20683;-71
2023/03/12 14:26:52;;;;;;;0.40;0.40;;;3.70;99.90;;;;;;4935851;29;20208;-71
2023/03/12 14:29:23;;;;;;;0.47;0.47;;;3.70;99.90;;;;;;4935515;28;20221;-72
2023/03/12 14:31:52;;;;;;;3.00;0.98;;;3.70;99.90;;;;;;4945529;29;20193;-72
2023/03/12 14:34:22;;;;;;;0.88;0.88;;;3.70;99.90;;;;;;4952450;28;20297;-71
2023/03/12 14:36:57;;;;;;;3.40;0.90;;;3.60;99.90;;;;;;4942626;28;20208;-71
2023/03/12 14:39:30;;;;;;;2.53;1.45;;;3.60;99.90;;;;;;4939263;29;20228;-71
2023/03/12 14:42:03;;;;;;;4.38;2.45;;;3.60;99.90;;;;;;4953021;28;20231;-71
2023/03/12 14:44:31;;;;;;;1.02;0.88;;;3.60;99.90;;;;;;4951751;28;20198;-71
2023/03/12 14:47:01;;;;;;;1.88;1.70;;;3.60;99.90;;;;;;4947380;28;20228;-71
2023/03/12 14:49:31;;;;;;;0.65;0.65;;;3.60;99.90;;;;;;4935315;28;20543;-71
2023/03/12 14:51:58;;;;;;;0.77;0.77;;;3.60;99.90;;;;;;4940138;28;20234;-71
2023/03/12 14:54:27;;;;;;;2.80;1.30;;;3.50;99.90;;;;;;4932647;29;20206;-71
2023/03/12 14:56:54;;;;;;;0.80;0.80;;;3.50;99.90;;;;;;4936289;29;20257;-71
2023/03/12 14:59:25;;;;;;;0.68;0.68;;;3.50;99.90;;;;;;4926336;28;20233;-70
2023/03/12 15:01:58;;;;;;;0.80;0.80;;;3.40;99.90;;;;;;4936618;29;20252;-70
2023/03/12 15:04:25;;;;;;;1.25;1.25;;;3.40;99.90;;;;;;4933178;29;20641;-71
2023/03/12 15:06:55;;;;;;;1.65;1.65;;;3.30;99.90;;;;;;4936169;29;20240;-71
2023/03/12 15:09:25;;;;;;;2.40;2.20;;;3.20;99.90;;;;;;4931641;28;20210;-70
2023/03/12 15:11:55;;;;;;;0.95;0.95;;;3.20;99.90;;;;;;4941095;28;20339;-71
2023/03/12 15:14:23;;;;;;;0.52;0.52;;;3.10;99.90;;;;;;4933046;29;20216;-71
2023/03/12 15:16:51;;;;;;;0.55;0.55;;;3.10;99.90;;;;;;4936061;29;20212;-70
2023/03/12 15:19:23;;;;;;;1.10;1.10;;;3.00;99.90;;;;;;4936326;28;20587;-70
2023/03/12 15:21:50;;;;;;;1.65;1.25;;;3.00;99.90;;;;;;4941508;28;20671;-70
2023/03/12 15:24:18;;;;;;;0.82;0.82;;;3.00;99.90;;;;;;4932321;29;20237;-72
2023/03/12 15:26:45;;;;;;;1.25;1.25;;;3.00;99.90;;;;;;4934444;29;20250;-71
2023/03/12 15:29:26;;;;;;;0.70;0.70;;;3.00;99.90;;;;;;4933158;28;20741;-70
2023/03/12 15:31:55;;;;;;;1.98;1.98;;;3.00;99.90;;;;;;4936325;28;20209;-71
2023/03/12 15:34:30;;;;;;;1.42;0.88;;;3.00;99.90;;;;;;4936485;28;20253;-71
2023/03/12 15:36:58;;;;;;;0.80;0.80;;;3.00;99.90;;;;;;4931990;29;20209;-71
2023/03/12 15:39:28;;;;;;;0.85;0.85;;;3.00;99.90;;;;;;4940777;29;20229;-71
2023/03/12 15:41:59;;;;;;;1.40;1.38;;;2.90;99.90;;;;;;4953067;28;20607;-71
2023/03/12 15:44:29;;;;;;;0.20;0.20;;;2.90;99.90;;;;;;4946796;28;20206;-70
2023/03/12 15:47:03;;;;;;;0.55;0.55;;;2.90;99.90;;;;;;4926819;29;20712;-70
2023/03/12 15:49:34;;;;;;;2.05;1.95;;;2.90;99.90;;;;;;4942378;29;20236;-69
2023/03/12 15:52:05;;;;;;;1.25;1.10;;;2.90;99.90;;;;;;4948587;28;20233;-70
2023/03/12 15:54:34;;;;;;;1.15;1.15;;;2.90;99.90;;;;;;4939658;29;20293;-70
2023/03/12 15:57:20;;;;;;;1.33;1.33;;;2.80;99.90;;;;;;4930908;28;20298;-70
2023/03/12 16:00:06;;;;;;;0.82;0.82;;;2.80;99.90;;;;;;4941808;29;20221;-72
2023/03/12 16:02:38;;;;;;;1.40;1.05;;;2.80;99.90;;;;;;4934368;29;20266;-71
2023/03/12 16:05:05;;;;;;;0.40;0.40;;;2.70;99.90;;;;;;4946530;28;20705;-70
2023/03/12 16:07:32;;;;;;;4.93;1.60;;;2.70;99.90;;;;;;4937207;29;20672;-70
2023/03/12 16:10:00;;;;;;;3.17;3.08;;;2.70;99.90;;;;;;4942432;28;20225;-70
2023/03/12 16:12:27;;;;;;;2.28;0.90;;;2.70;99.90;;;;;;4938861;28;20618;-71
2023/03/12 16:14:54;;;;;;;11.10;5.20;;;2.70;99.90;;;;;;4935792;28;20202;-71
2023/03/12 16:17:22;;;;;;;9.20;6.22;;;2.70;99.90;;;;;;4923591;29;20214;-71
2023/03/12 16:19:49;;;;;;;4.75;2.00;;;2.70;99.90;;;;;;4942502;29;20642;-70
2023/03/12 16:22:19;;;;;;;3.33;3.30;;;2.70;99.90;;;;;;4945739;28;20229;-70
2023/03/12 16:24:45;;;;;;;1.20;1.20;;;2.70;99.90;;;;;;4935187;28;20210;-70
2023/03/12 16:27:16;;;;;;;3.63;2.33;;;2.70;99.90;;;;;;4931670;28;20209;-69
2023/03/12 16:29:43;;;;;;;2.20;2.08;;;2.70;99.90;;;;;;4933838;28;20202;-69
2023/03/12 16:32:12;;;;;;;9.05;4.40;;;2.70;99.90;;;;;;4939106;29;20225;-69
2023/03/12 16:34:39;;;;;;;2.28;1.60;;;2.70;99.90;;;;;;4929387;29;20207;-70
2023/03/12 16:37:06;;;;;;;4.32;2.83;;;2.70;99.90;;;;;;4936435;29;20213;-69
2023/03/12 16:39:32;;;;;;;4.68;4.38;;;2.80;99.90;;;;;;4933571;29;20226;-70
2023/03/12 16:42:01;;;;;;;5.70;4.22;;;2.80;99.90;;;;;;4941464;29;20313;-69
2023/03/12 16:44:31;;;;;;;2.78;2.67;;;2.80;99.90;;;;;;4935269;28;20214;-69
2023/03/12 16:46:58;;;;;;;2.55;1.85;;;2.80;99.90;;;;;;4935221;29;20572;-70
2023/03/12 16:49:25;;;;;;;1.02;0.93;;;2.80;99.90;;;;;;4927807;29;20248;-69
2023/03/12 16:51:51;;;;;;;1.98;1.45;;;2.80;99.90;;;;;;4952864;29;20228;-69
2023/03/12 16:54:18;;;;;;;1.83;1.75;;;2.80;99.90;;;;;;4927904;28;20206;-70
2023/03/12 16:56:47;;;;;;;4.15;2.67;;;2.80;99.90;;;;;;4938175;29;20541;-71
2023/03/12 16:59:24;;;;;;;3.38;2.22;;;2.80;99.90;;;;;;4935239;28;20260;-69
2023/03/12 17:01:53;;;;;;;1.65;1.55;;;2.80;99.90;;;;;;4932528;29;20210;-69
2023/03/12 17:04:20;;;;;;;5.68;3.15;;;2.80;99.90;;;;;;4925624;29;20225;-70
2023/03/12 17:06:46;;;;;;;1.48;1.38;;;2.80;99.90;;;;;;4940952;28;20232;-69
2023/03/12 17:09:13;;;;;;;3.17;3.08;;;2.80;99.90;;;;;;4928056;29;20202;-69
2023/03/12 17:11:40;;;;;;;0.80;0.80;;;2.80;99.90;;;;;;4941929;29;20206;-69
2023/03/12 17:14:16;;;;;;;4.63;3.85;;;2.90;99.90;;;;;;4924105;29;20676;-70
2023/03/12 17:16:43;;;;;;;2.55;2.22;;;2.90;99.90;;;;;;4934092;29;20225;-70
2023/03/12 17:19:11;;;;;;;2.67;2.58;;;2.90;99.90;;;;;;4932912;29;20624;-70
2023/03/12 17:21:37;;;;;;;1.77;1.67;;;2.90;99.90;;;;;;4920540;29;20525;-68
2023/03/12 17:24:05;;;;;;;2.05;1.65;;;2.90;99.90;;;;;;4917551;29;20220;-69
2023/03/12 17:26:32;;;;;;;2.38;2.22;;;2.90;99.90;;;;;;4949830;29;20288;-68
2023/03/12 17:28:59;;;;;;;3.50;2.17;;;2.90;99.90;;;;;;4939724;28;20639;-69
2023/03/12 17:31:25;;;;;;;1.35;1.10;;;2.90;99.90;;;;;;4930134;29;20646;-68
2023/03/12 17:33:52;;;;;;;1.65;1.55;;;2.90;99.90;;;;;;4935769;28;20226;-68
2023/03/12 17:36:20;;;;;;;1.73;1.65;;;3.00;99.90;;;;;;4936331;29;20206;-69
2023/03/12 17:38:47;;;;;;;2.00;1.90;;;3.00;99.90;;;;;;4936198;29;20213;-68
2023/03/12 17:41:14;;;;;;;1.65;1.42;;;3.00;99.90;;;;;;4947541;28;20232;-69
2023/03/12 17:43:40;;;;;;;1.70;1.60;;;3.00;99.90;;;;;;4948215;29;20225;-70
2023/03/12 17:46:09;;;;;;;2.10;1.95;;;3.00;99.90;;;;;;4926052;29;20600;-69
2023/03/12 17:48:36;;;;;;;1.08;1.08;;;3.00;99.90;;;;;;4934674;29;20209;-69
2023/03/12 17:51:06;;;;;;;2.55;2.22;;;3.10;99.90;;;;;;4936554;29;20204;-69
2023/03/12 17:53:34;;;;;;;0.93;0.93;;;3.10;99.90;;;;;;4941641;29;20738;-69
2023/03/12 17:56:01;;;;;;;2.10;2.10;;;3.10;99.90;;;;;;4917412;29;20237;-69
2023/03/12 17:58:28;;;;;;;3.75;1.45;;;3.10;99.90;;;;;;4920320;29;20664;-69
2023/03/12 18:00:55;;;;;;;2.28;2.08;;;3.10;99.90;;;;;;4931319;29;20236;-69
2023/03/12 18:03:21;;;;;;;2.33;2.33;;;3.20;99.90;;;;;;4939338;28;20233;-68
2023/03/12 18:05:49;;;;;;;2.13;1.95;;;3.20;99.90;;;;;;4934645;29;20663;-69
2023/03/12 18:08:16;;;;;;;3.50;2.55;;;3.20;99.90;;;;;;4940483;28;20667;-69
2023/03/12 18:10:44;;;;;;;2.03;1.83;;;3.30;99.90;;;;;;4943361;29;20209;-69
2023/03/12 18:13:11;;;;;;;1.85;1.67;;;3.30;99.90;;;;;;4951212;28;20301;-69
2023/03/12 18:15:38;;;;;;;4.97;2.05;;;3.30;99.90;;;;;;4937980;29;20214;-69